Time;durP1;ratioP1;P1;durP2;ratioP2;P2;SDS_P1;SDS_P2;PMS_P1;PMS_P2;Temp;Humidity;BMP_temperature;BMP_pressure;BME280_temperature;BME280_humidity;BME280_pressure;Samples;Min_cycle;Max_cycle;Signal;HPM_P1;HPM_P2
2022/03/20 00:01:16;;;;;;;12.98;6.55;;;;;;;-1.68;46.54;100161.14;1711548;84;21012;-81
2022/03/20 00:03:44;;;;;;;16.45;7.92;;;;;;;-1.71;46.53;100157.09;1711803;84;21032;-81
2022/03/20 00:06:10;;;;;;;13.08;7.35;;;;;;;-1.73;46.81;100154.40;1724502;82;20974;-81
2022/03/20 00:08:37;;;;;;;14.68;7.10;;;;;;;-1.78;47.38;100159.75;1741078;82;21001;-81
2022/03/20 00:11:04;;;;;;;13.50;6.90;;;;;;;-1.79;46.97;100151.47;1741486;82;20938;-81
2022/03/20 00:13:31;;;;;;;14.03;7.28;;;;;;;-1.83;47.24;100163.80;1741057;82;21057;-81
2022/03/20 00:15:59;;;;;;;11.48;7.08;;;;;;;-1.88;47.41;100158.34;1731201;82;20961;-81
2022/03/20 00:18:27;;;;;;;14.60;6.75;;;;;;;-1.87;47.13;100164.05;1711694;82;21056;-81
2022/03/20 00:21:00;;;;;;;14.05;7.03;;;;;;;-1.88;47.47;100154.44;1711605;84;21017;-81
2022/03/20 00:23:28;;;;;;;12.98;6.90;;;;;;;-1.91;47.50;100158.19;1712044;84;21426;-81
2022/03/20 00:25:58;;;;;;;12.43;7.25;;;;;;;-2.03;50.31;100176.58;1711764;84;21044;-81
2022/03/20 00:28:26;;;;;;;12.33;6.47;;;;;;;-2.06;48.36;100174.70;1723753;82;21387;-81
2022/03/20 00:30:55;;;;;;;15.90;6.85;;;;;;;-2.06;48.26;100172.11;1741320;81;20985;-81
2022/03/20 00:33:22;;;;;;;12.50;6.45;;;;;;;-2.10;48.46;100157.14;1741224;82;21017;-81
2022/03/20 00:35:50;;;;;;;13.68;6.20;;;;;;;-2.12;48.46;100165.23;1740435;82;21029;-81
2022/03/20 00:38:16;;;;;;;14.00;6.45;;;;;;;-2.11;48.40;100156.66;1741199;82;21423;-81
2022/03/20 00:40:43;;;;;;;11.85;6.30;;;;;;;-2.10;48.35;100143.25;1740426;82;20986;-81
2022/03/20 00:43:10;;;;;;;11.90;6.30;;;;;;;-2.09;48.47;100132.95;1741172;82;21044;-81
2022/03/20 00:45:37;;;;;;;12.18;6.72;;;;;;;-2.13;48.54;100133.58;1741303;82;20978;-81
2022/03/20 00:48:04;;;;;;;12.28;6.40;;;;;;;-2.19;48.69;100148.83;1741159;82;21048;-75
2022/03/20 00:50:31;;;;;;;10.53;6.60;;;;;;;-2.24;48.57;100141.18;1741904;81;20966;-75
2022/03/20 00:52:58;;;;;;;13.98;6.30;;;;;;;-2.30;48.65;100133.53;1740631;82;21056;-74
2022/03/20 00:55:25;;;;;;;13.35;6.53;;;;;;;-2.29;48.61;100144.80;1725391;83;21047;-75
2022/03/20 00:57:52;;;;;;;12.55;6.58;;;;;;;-2.30;48.75;100138.73;1725011;83;21477;-75
2022/03/20 01:00:19;;;;;;;13.03;7.20;;;;;;;-2.37;48.92;100138.30;1727458;82;21036;-75
2022/03/20 01:02:46;;;;;;;13.43;7.53;;;;;;;-2.38;48.78;100146.47;1755224;82;20977;-75
2022/03/20 01:05:14;;;;;;;12.98;6.72;;;;;;;-2.41;49.02;100140.70;1755439;82;20961;-75
2022/03/20 01:07:42;;;;;;;17.20;7.22;;;;;;;-2.42;49.35;100140.22;1755179;82;21092;-75
2022/03/20 01:10:10;;;;;;;17.90;7.37;;;;;;;-2.44;49.49;100132.76;1754869;82;20988;-75
2022/03/20 01:12:38;;;;;;;13.20;7.12;;;;;;;-2.46;49.23;100138.25;1726139;82;21044;-75
2022/03/20 01:15:08;;;;;;;21.42;8.23;;;;;;;-2.46;49.92;100142.56;1725459;83;20949;-75
2022/03/20 01:17:35;;;;;;;14.30;7.00;;;;;;;-2.47;49.54;100139.45;1725304;83;21009;-75
2022/03/20 01:20:03;;;;;;;15.58;8.08;;;;;;;-2.54;49.85;100145.98;1725425;83;21040;-75
2022/03/20 01:22:30;;;;;;;14.20;7.45;;;;;;;-2.55;49.66;100142.91;1725524;82;20989;-75
2022/03/20 01:24:57;;;;;;;15.72;8.20;;;;;;;-2.62;49.75;100144.25;1754888;82;20969;-75
2022/03/20 01:27:23;;;;;;;18.77;8.10;;;;;;;-2.69;49.76;100146.88;1755301;82;21446;-75
2022/03/20 01:29:49;;;;;;;14.58;7.58;;;;;;;-2.74;52.92;100146.14;1755404;82;21001;-75
2022/03/20 01:32:17;;;;;;;16.17;7.95;;;;;;;-2.74;50.72;100152.63;1738247;82;20981;-75
2022/03/20 01:34:44;;;;;;;15.68;9.35;;;;;;;-2.71;50.46;100144.61;1749132;82;20965;-75
2022/03/20 01:37:10;;;;;;;16.65;8.30;;;;;;;-2.71;50.37;100148.50;1755390;82;20949;-75
2022/03/20 01:39:37;;;;;;;17.75;7.95;;;;;;;-2.75;50.60;100149.13;1754975;82;21451;-75
2022/03/20 01:42:09;;;;;;;21.62;8.60;;;;;;;-2.77;50.69;100146.86;1754514;81;21004;-75
2022/03/20 01:44:36;;;;;;;15.95;8.15;;;;;;;-2.80;50.75;100150.17;1753879;82;21017;-75
2022/03/20 01:47:10;;;;;;;14.23;8.33;;;;;;;-2.85;50.87;100149.00;1755319;81;20988;-75
2022/03/20 01:49:37;;;;;;;18.73;8.93;;;;;;;-2.89;51.50;100146.12;1755627;82;21029;-75
2022/03/20 01:52:13;;;;;;;18.05;8.15;;;;;;;-2.92;52.68;100146.44;1746756;81;21427;-75
2022/03/20 01:54:45;;;;;;;15.98;8.40;;;;;;;-2.94;52.30;100151.05;1717311;82;20981;-74
2022/03/20 01:57:16;;;;;;;13.88;8.38;;;;;;;-2.96;54.21;100152.64;1713857;82;21080;-74
2022/03/20 01:59:44;;;;;;;14.20;7.67;;;;;;;-3.02;54.30;100151.89;1711864;84;21026;-73
2022/03/20 02:02:11;;;;;;;16.02;7.28;;;;;;;-3.08;53.44;100155.00;1711985;84;20997;-74
2022/03/20 02:04:39;;;;;;;15.32;6.72;;;;;;;-3.10;53.66;100151.82;1713478;82;21077;-74
2022/03/20 02:07:07;;;;;;;12.98;6.33;;;;;;;-3.13;54.21;100147.34;1741299;82;20989;-74
2022/03/20 02:09:37;;;;;;;11.28;6.17;;;;;;;-3.22;54.54;100148.98;1741338;82;21009;-74
2022/03/20 02:12:05;;;;;;;11.88;6.95;;;;;;;-3.23;53.01;100147.59;1741083;82;20989;-73
2022/03/20 02:14:33;;;;;;;13.32;6.60;;;;;;;-3.28;53.04;100146.42;1741143;82;21447;-74
2022/03/20 02:17:02;;;;;;;13.18;7.20;;;;;;;-3.34;52.74;100150.44;1735900;82;21387;-73
2022/03/20 02:19:28;;;;;;;20.10;8.20;;;;;;;-3.33;52.92;100148.33;1711838;84;21033;-73
2022/03/20 02:21:55;;;;;;;17.15;8.38;;;;;;;-3.38;53.40;100152.73;1712006;84;21005;-74
2022/03/20 02:24:36;;;;;;;13.13;7.78;;;;;;;-3.42;53.32;100165.00;1711906;83;21005;-74
2022/03/20 02:27:15;;;;;;;18.60;9.70;;;;;;;-3.42;53.07;100150.35;1711712;84;21068;-74
2022/03/20 02:29:44;;;;;;;17.00;8.73;;;;;;;-3.44;53.30;100170.12;1712748;82;21458;-74
2022/03/20 02:32:14;;;;;;;19.52;8.35;;;;;;;-3.48;53.54;100168.13;1711892;84;21021;-74
2022/03/20 02:34:42;;;;;;;18.40;9.08;;;;;;;-3.51;53.53;100168.84;1736448;82;20941;-74
2022/03/20 02:37:08;;;;;;;15.30;8.88;;;;;;;-3.58;53.41;100166.27;1741280;81;20994;-74
2022/03/20 02:39:36;;;;;;;18.98;9.10;;;;;;;-3.60;53.64;100163.08;1741415;82;20970;-74
2022/03/20 02:42:06;;;;;;;18.87;8.98;;;;;;;-3.60;53.75;100162.69;1740289;82;20970;-74
2022/03/20 02:45:04;;;;;;;19.00;9.60;;;;;;;-3.59;53.85;100168.75;1741428;82;20973;-74
2022/03/20 02:47:35;;;;;;;18.85;9.08;;;;;;;-3.64;53.84;100162.00;1741380;82;21419;-74
2022/03/20 02:50:12;;;;;;;13.38;7.58;;;;;;;-3.66;53.85;100160.98;1741159;81;20997;-74
2022/03/20 02:52:58;;;;;;;13.88;6.58;;;;;;;-3.65;55.12;100160.60;1741349;81;21431;-75
2022/03/20 02:55:37;;;;;;;20.40;9.05;;;;;;;-3.66;55.04;100158.39;1713851;82;21033;-74
2022/03/20 02:58:10;;;;;;;17.57;8.88;;;;;;;-3.71;54.61;100155.53;1711884;84;20989;-75
2022/03/20 03:00:38;;;;;;;15.98;8.70;;;;;;;-3.77;54.75;100162.02;1711371;84;21053;-75
2022/03/20 03:03:08;;;;;;;17.15;8.95;;;;;;;-3.84;55.12;100160.73;1711719;84;21021;-75
2022/03/20 03:05:34;;;;;;;20.75;9.45;;;;;;;-3.93;55.08;100163.64;1716236;82;21053;-74
2022/03/20 03:10:57;;;;;;;19.02;8.88;;;;;;;-3.93;55.26;100184.37;1741259;82;21403;-74
2022/03/20 03:13:36;;;;;;;19.45;9.43;;;;;;;-3.96;55.32;100180.69;1741672;82;21041;-75
2022/03/20 03:16:08;;;;;;;20.20;8.38;;;;;;;-4.02;55.38;100185.06;1720739;82;21052;-75
2022/03/20 03:18:37;;;;;;;15.80;8.48;;;;;;;-4.09;55.45;100178.59;1721110;82;21061;-75
2022/03/20 03:21:04;;;;;;;21.80;8.90;;;;;;;-4.10;55.66;100175.52;1711826;84;20978;-75
2022/03/20 03:23:31;;;;;;;20.17;10.05;;;;;;;-4.11;56.05;100172.02;1711773;84;20985;-75
2022/03/20 03:25:58;;;;;;;16.67;8.88;;;;;;;-4.11;55.82;100165.95;1711953;84;21017;-75
2022/03/20 03:28:33;;;;;;;18.10;9.05;;;;;;;-4.08;56.19;100168.72;1711936;83;20998;-75
2022/03/20 03:30:54;;;;;;;16.62;8.65;;;;;;;-4.12;56.32;100170.23;1729919;82;21021;-74
2022/03/20 03:33:22;;;;;;;17.20;8.53;;;;;;;-4.09;55.76;100175.09;1740618;82;21000;-74
2022/03/20 03:35:54;;;;;;;19.52;8.20;;;;;;;-4.15;57.16;100179.50;1741359;82;21005;-75
2022/03/20 03:38:30;;;;;;;15.40;8.98;;;;;;;-4.18;56.47;100173.72;1740289;82;21064;-75
2022/03/20 03:40:58;;;;;;;21.52;8.50;;;;;;;-4.13;56.44;100181.77;1741523;81;20957;-74
2022/03/20 03:43:25;;;;;;;13.18;8.28;;;;;;;-4.16;56.23;100173.83;1741279;81;20981;-74
2022/03/20 03:45:56;;;;;;;14.63;8.85;;;;;;;-4.19;56.27;100174.49;1741081;82;21474;-74
2022/03/20 03:48:21;;;;;;;17.85;8.38;;;;;;;-4.22;56.50;100170.81;1733011;82;20997;-74
2022/03/20 03:50:52;;;;;;;14.15;7.47;;;;;;;-4.26;56.48;100177.50;1712080;82;21009;-74
2022/03/20 03:53:19;;;;;;;14.75;7.55;;;;;;;-4.27;57.13;100182.19;1711926;83;21025;-74
2022/03/20 03:55:45;;;;;;;11.78;6.85;;;;;;;-4.36;58.95;100185.08;1711792;84;21017;-74
2022/03/20 03:58:13;;;;;;;18.37;8.00;;;;;;;-4.42;58.84;100184.27;1711850;83;20989;-74
2022/03/20 04:00:43;;;;;;;16.55;7.47;;;;;;;-4.46;58.51;100183.55;1720428;82;20994;-74
2022/03/20 04:03:10;;;;;;;15.13;8.35;;;;;;;-4.56;60.90;100182.06;1741289;82;21000;-74
2022/03/20 04:05:37;;;;;;;18.73;7.58;;;;;;;-4.56;58.98;100191.51;1741028;82;21038;-74
2022/03/20 04:08:25;;;;;;;15.85;8.03;;;;;;;-4.58;59.07;100190.11;1741414;82;21001;-74
2022/03/20 04:10:52;;;;;;;20.27;9.65;;;;;;;-4.59;58.60;100185.73;1715695;84;21036;-74
2022/03/20 04:13:19;;;;;;;19.37;9.48;;;;;;;-4.66;58.57;100187.01;1715402;83;21021;-73
2022/03/20 04:15:45;;;;;;;16.97;9.98;;;;;;;-4.74;59.61;100186.88;1715831;83;20996;-74
2022/03/20 04:18:12;;;;;;;21.65;10.85;;;;;;;-4.82;59.53;100182.48;1715689;83;21017;-74
2022/03/20 04:20:38;;;;;;;23.90;10.48;;;;;;;-4.87;60.80;100187.75;1709454;83;21443;-74
2022/03/20 04:25:50;;;;;;;22.27;10.00;;;;;;;-4.98;59.60;100182.25;1709746;84;21088;-74
2022/03/20 04:28:19;;;;;;;17.62;9.60;;;;;;;-4.97;59.79;100184.95;1709337;84;21001;-74
2022/03/20 04:30:45;;;;;;;19.52;9.63;;;;;;;-5.04;59.77;100185.30;1710324;83;21017;-74
2022/03/20 04:33:12;;;;;;;25.00;13.05;;;;;;;-5.01;60.08;100186.82;1711906;83;20977;-75
2022/03/20 04:35:38;;;;;;;27.73;11.93;;;;;;;-4.96;60.64;100182.86;1715568;83;21037;-74
2022/03/20 04:38:05;;;;;;;27.25;12.90;;;;;;;-4.94;59.89;100194.19;1715669;83;21013;-74
2022/03/20 04:40:31;;;;;;;27.90;13.43;;;;;;;-4.90;60.27;100192.31;1715696;83;20992;-82
2022/03/20 04:42:58;;;;;;;32.13;13.68;;;;;;;-4.93;60.32;100197.30;1707665;83;21064;-83
2022/03/20 04:45:26;;;;;;;43.95;19.70;;;;;;;-4.87;60.20;100195.92;1687184;85;21028;-82
2022/03/20 04:58:52;;;;;;;28.20;13.90;;;;;;;-4.80;61.02;100200.70;1709872;84;20982;-83
2022/03/20 05:01:19;;;;;;;24.23;12.80;;;;;;;-4.90;61.20;100203.08;1709832;84;20989;-84
2022/03/20 05:03:47;;;;;;;31.37;13.95;;;;;;;-4.99;62.90;100208.91;1709877;83;21064;-83
2022/03/20 05:06:13;;;;;;;31.73;14.23;;;;;;;-5.03;61.05;100209.07;1709861;84;20993;-83
2022/03/20 05:08:40;;;;;;;28.62;13.98;;;;;;;-5.02;60.58;100217.36;1711348;84;21016;-82
2022/03/20 05:13:51;;;;;;;33.10;15.58;;;;;;;-4.86;60.37;100221.87;1716719;83;20988;-84
2022/03/20 05:16:18;;;;;;;32.15;14.70;;;;;;;-4.78;60.31;100227.17;1717644;83;21466;-84
2022/03/20 05:18:45;;;;;;;31.10;15.32;;;;;;;-4.73;60.04;100224.02;1722327;83;21012;-84
2022/03/20 05:21:12;;;;;;;37.47;16.10;;;;;;;-4.66;59.77;100219.35;1723684;83;21055;-84
2022/03/20 05:23:39;;;;;;;37.58;14.83;;;;;;;-4.57;59.79;100220.78;1723304;83;21155;-84
2022/03/20 05:26:06;;;;;;;33.65;14.93;;;;;;;-4.52;60.13;100232.33;1724287;83;21009;-84
2022/03/20 05:28:33;;;;;;;37.28;15.75;;;;;;;-4.41;59.47;100228.77;1724943;83;21386;-84
2022/03/20 05:31:00;;;;;;;36.00;17.07;;;;;;;-4.36;59.73;100240.73;1724630;83;21017;-84
2022/03/20 05:33:29;;;;;;;32.17;15.63;;;;;;;-4.34;59.62;100237.84;1723008;83;20976;-84
2022/03/20 05:35:55;;;;;;;30.40;14.90;;;;;;;-4.31;59.42;100236.76;1723670;83;21017;-84
2022/03/20 05:38:23;;;;;;;31.87;15.80;;;;;;;-4.27;59.48;100235.27;1718545;83;21005;-84
2022/03/20 05:41:43;;;;;;;32.15;13.45;;;;;;;-4.20;59.53;100237.45;1716771;84;20992;-75
2022/03/20 05:43:20;;;;;;;48.58;21.45;;;;;;;-4.17;59.76;100240.63;1712861;84;21029;-76
2022/03/20 05:45:47;;;;;;;45.28;19.95;;;;;;;-4.14;59.58;100233.98;1716574;84;21470;-74
2022/03/20 05:48:14;;;;;;;30.15;14.63;;;;;;;-4.07;59.24;100234.38;1716749;83;21055;-75
2022/03/20 05:50:40;;;;;;;31.15;14.95;;;;;;;-4.02;59.19;100246.81;1723126;83;21032;-75
2022/03/20 05:53:07;;;;;;;25.57;12.47;;;;;;;-3.91;58.98;100241.05;1717521;83;21108;-75
2022/03/20 05:58:18;;;;;;;23.65;13.18;;;;;;;-3.75;58.46;100254.61;1717725;83;20985;-75
2022/03/20 06:00:44;;;;;;;25.30;11.75;;;;;;;-3.65;58.21;100255.20;1717515;83;21450;-75
2022/03/20 06:03:11;;;;;;;21.73;11.38;;;;;;;-3.67;58.00;100243.81;1716768;83;21119;-75
2022/03/20 06:05:39;;;;;;;24.95;12.73;;;;;;;-3.65;57.96;100253.48;1716571;83;21470;-75
2022/03/20 06:08:06;;;;;;;26.17;13.22;;;;;;;-3.63;57.85;100260.98;1717192;83;21438;-75
2022/03/20 06:10:34;;;;;;;31.15;14.35;;;;;;;-3.60;57.85;100264.16;1716668;84;21020;-75
2022/03/20 06:13:05;;;;;;;24.63;12.47;;;;;;;-3.61;58.25;100264.55;1710604;83;21024;-75
2022/03/20 06:15:32;;;;;;;33.33;13.83;;;;;;;-3.63;57.91;100262.27;1694862;85;20996;-75
2022/03/20 06:17:58;;;;;;;29.92;14.00;;;;;;;-3.53;57.91;100260.27;1694761;84;21084;-74
2022/03/20 06:20:25;;;;;;;29.27;13.93;;;;;;;-3.48;58.02;100261.04;1694722;85;21056;-75
2022/03/20 06:22:52;;;;;;;24.47;12.85;;;;;;;-3.39;57.81;100251.67;1695486;83;20984;-74
2022/03/20 06:25:20;;;;;;;25.72;13.80;;;;;;;-3.31;57.55;100261.23;1694840;85;21004;-75
2022/03/20 06:27:52;;;;;;;26.87;13.62;;;;;;;-3.26;57.57;100263.71;1694754;85;21059;-75
2022/03/20 06:30:21;;;;;;;27.25;13.18;;;;;;;-3.20;57.30;100275.76;1694824;84;21079;-83
2022/03/20 06:32:48;;;;;;;24.92;13.05;;;;;;;-3.12;57.54;100272.77;1714962;83;21009;-83
2022/03/20 06:35:20;;;;;;;29.63;14.00;;;;;;;-3.09;57.70;100283.31;1720948;83;20996;-83
2022/03/20 06:37:53;;;;;;;35.80;15.10;;;;;;;-3.04;57.68;100280.59;1723639;83;21034;-83
2022/03/20 06:40:17;;;;;;;28.35;14.25;;;;;;;-2.95;57.22;100282.89;1722537;83;21025;-83
2022/03/20 06:42:44;;;;;;;27.27;14.03;;;;;;;-2.81;57.33;100288.92;1722611;83;20993;-84
2022/03/20 06:45:12;;;;;;;27.48;13.75;;;;;;;-2.65;57.03;100282.97;1716803;83;21021;-83
2022/03/20 06:47:42;;;;;;;26.70;13.98;;;;;;;-2.54;56.78;100275.81;1716568;83;21011;-83
2022/03/20 06:50:11;;;;;;;25.80;14.75;;;;;;;-2.37;56.72;100274.64;1716999;83;21386;-82
2022/03/20 06:52:40;;;;;;;24.27;13.15;;;;;;;-2.23;56.56;100264.67;1716719;83;21079;-82
2022/03/20 06:55:12;;;;;;;27.75;14.13;;;;;;;-2.14;56.40;100265.20;1708350;83;21060;-83
2022/03/20 06:57:45;;;;;;;26.82;14.58;;;;;;;-2.00;56.20;100258.59;1715110;83;21470;-83
2022/03/20 07:00:16;;;;;;;32.78;15.30;;;;;;;-1.92;56.18;100253.83;1717655;83;21048;-83
2022/03/20 07:02:44;;;;;;;28.70;14.65;;;;;;;-1.78;56.23;100256.81;1716073;83;21017;-83
2022/03/20 07:05:11;;;;;;;25.40;14.23;;;;;;;-1.65;56.16;100248.42;1717093;83;21028;-83
2022/03/20 07:07:40;;;;;;;30.77;14.98;;;;;;;-1.57;55.88;100251.06;1716570;83;21044;-83
2022/03/20 07:10:08;;;;;;;27.55;14.83;;;;;;;-1.44;55.74;100250.03;1714596;83;21064;-83
2022/03/20 07:12:35;;;;;;;28.62;16.17;;;;;;;-1.33;55.62;100259.31;1711365;83;21442;-83
2022/03/20 07:15:01;;;;;;;23.45;13.68;;;;;;;-1.27;55.49;100270.47;1694129;84;21039;-83
2022/03/20 07:17:29;;;;;;;26.48;14.40;;;;;;;-1.20;55.33;100277.78;1715716;83;21040;-83
2022/03/20 07:20:04;;;;;;;28.42;13.55;;;;;;;-1.07;54.91;100266.76;1718040;83;21005;-83
2022/03/20 07:22:26;;;;;;;25.97;13.93;;;;;;;-1.02;54.64;100257.88;1716586;83;21012;-84
2022/03/20 07:24:53;;;;;;;23.18;13.05;;;;;;;-0.93;54.47;100271.39;1689822;85;21028;-82
2022/03/20 07:30:07;;;;;;;22.27;12.03;;;;;;;-0.71;53.84;100265.62;1687134;85;21060;-83
2022/03/20 07:32:34;;;;;;;21.52;11.63;;;;;;;-0.58;53.31;100252.83;1688145;84;21469;-83
2022/03/20 07:35:01;;;;;;;24.00;12.93;;;;;;;-0.49;52.74;100247.22;1715735;83;21021;-84
2022/03/20 07:37:28;;;;;;;24.45;12.50;;;;;;;-0.41;52.62;100231.98;1715697;83;20989;-83
2022/03/20 07:39:55;;;;;;;22.05;11.40;;;;;;;-0.29;52.20;100219.98;1715621;83;21044;-83
2022/03/20 07:42:23;;;;;;;19.87;10.90;;;;;;;-0.18;51.29;100221.41;1712670;84;21451;-83
2022/03/20 07:44:50;;;;;;;18.80;10.40;;;;;;;-0.09;51.32;100226.60;1711256;83;21060;-84
2022/03/20 07:47:22;;;;;;;21.15;10.82;;;;;;;0.03;51.02;100222.41;1711301;84;21068;-83
2022/03/20 07:49:51;;;;;;;21.30;10.32;;;;;;;0.20;50.88;100211.48;1711157;83;21073;-84
2022/03/20 07:52:19;;;;;;;19.62;10.48;;;;;;;0.34;50.36;100211.71;1712890;83;21033;-84
2022/03/20 07:54:48;;;;;;;20.20;10.03;;;;;;;0.50;50.21;100209.85;1711396;84;21066;-84
2022/03/20 07:57:15;;;;;;;21.65;10.90;;;;;;;0.67;50.03;100214.95;1717196;83;20989;-83
2022/03/20 07:59:44;;;;;;;17.15;8.80;;;;;;;0.80;49.33;100193.83;1711152;83;21037;-84
2022/03/20 08:02:11;;;;;;;17.12;9.50;;;;;;;0.94;49.26;100193.53;1719257;83;21058;-84
2022/03/20 08:04:40;;;;;;;16.87;9.15;;;;;;;1.03;45.77;100194.84;1719323;83;21032;-83
2022/03/20 08:07:07;;;;;;;15.08;8.85;;;;;;;1.09;45.29;100185.50;1719433;83;21004;-83
2022/03/20 08:09:34;;;;;;;15.83;8.45;;;;;;;1.14;42.78;100190.52;1719757;83;20985;-83
2022/03/20 08:12:01;;;;;;;15.83;8.33;;;;;;;1.19;41.82;100187.69;1713656;83;21033;-83
2022/03/20 08:14:28;;;;;;;21.60;9.00;;;;;;;1.27;44.99;100190.63;1711275;83;21072;-83
2022/03/20 08:16:55;;;;;;;17.17;8.20;;;;;;;1.37;45.18;100194.55;1711405;84;21001;-83
2022/03/20 08:19:24;;;;;;;18.17;8.73;;;;;;;1.47;44.86;100187.98;1711224;84;21017;-83
2022/03/20 08:21:51;;;;;;;15.72;8.65;;;;;;;1.55;44.28;100182.68;1709950;83;20993;-83
2022/03/20 08:24:18;;;;;;;19.07;9.38;;;;;;;1.63;44.45;100183.00;1686995;85;21040;-84
2022/03/20 08:26:46;;;;;;;13.30;7.47;;;;;;;1.71;44.39;100179.87;1707378;84;20989;-84
2022/03/20 08:29:14;;;;;;;10.90;6.25;;;;;;;1.79;42.17;100188.47;1711376;84;21053;-84
2022/03/20 08:31:47;;;;;;;13.58;6.70;;;;;;;1.84;38.66;100193.03;1708765;83;21017;-83
2022/03/20 08:34:16;;;;;;;11.73;6.75;;;;;;;1.92;40.26;100181.61;1700364;84;21415;-83
2022/03/20 08:36:47;;;;;;;10.90;6.60;;;;;;;2.05;39.20;100174.24;1690886;84;21077;-82
2022/03/20 08:39:14;;;;;;;13.50;6.90;;;;;;;2.18;38.05;100176.53;1695819;83;21003;-82
2022/03/20 08:41:43;;;;;;;27.32;12.93;;;;;;;2.36;38.83;100175.05;1682353;85;21370;-82
2022/03/20 08:44:09;;;;;;;12.43;7.62;;;;;;;2.51;38.54;100171.23;1659912;86;21029;-83
2022/03/20 08:46:38;;;;;;;16.20;8.45;;;;;;;2.66;39.91;100160.47;1657788;86;21438;-83
2022/03/20 08:49:07;;;;;;;14.50;7.33;;;;;;;2.71;36.91;100155.39;1682831;85;21890;-83
2022/03/20 08:51:42;;;;;;;16.00;7.80;;;;;;;2.81;37.67;100153.58;1718804;83;20988;-82
2022/03/20 08:54:09;;;;;;;15.55;8.18;;;;;;;2.92;36.68;100140.89;1718008;83;21057;-82
2022/03/20 08:56:35;;;;;;;13.80;6.85;;;;;;;2.98;37.35;100140.20;1719246;83;21406;-83
2022/03/20 08:59:02;;;;;;;13.08;6.70;;;;;;;3.13;37.12;100141.17;1682916;85;21398;-82
2022/03/20 09:01:29;;;;;;;12.70;6.85;;;;;;;3.24;34.41;100135.88;1681915;85;21028;-83
2022/03/20 09:03:55;;;;;;;14.40;7.55;;;;;;;3.34;35.15;100134.89;1681434;85;21418;-82
2022/03/20 09:06:22;;;;;;;14.60;8.35;;;;;;;3.49;36.60;100135.41;1684971;85;20997;-82
2022/03/20 09:08:50;;;;;;;11.95;7.37;;;;;;;3.62;35.22;100131.91;1685443;85;21017;-81
2022/03/20 09:11:18;;;;;;;12.90;7.50;;;;;;;3.75;34.45;100127.95;1720218;83;21402;-81
2022/03/20 09:13:46;;;;;;;12.33;7.12;;;;;;;3.87;33.55;100136.64;1727161;83;20968;-81
2022/03/20 09:18:59;;;;;;;12.85;7.67;;;;;;;4.16;35.77;100134.05;1726442;83;21004;-82
2022/03/20 09:21:28;;;;;;;14.00;8.30;;;;;;;4.37;35.79;100127.26;1724473;83;20953;-81
2022/03/20 09:23:55;;;;;;;13.05;7.05;;;;;;;4.52;35.83;100136.44;1723284;83;21438;-82
2022/03/20 09:26:22;;;;;;;12.53;6.80;;;;;;;4.65;33.18;100138.56;1725043;83;20982;-82
2022/03/20 09:28:49;;;;;;;11.30;6.97;;;;;;;4.74;32.75;100132.27;1728107;83;21015;-82
2022/03/20 09:31:19;;;;;;;13.43;6.65;;;;;;;4.93;34.73;100135.41;1725004;82;21363;-82
2022/03/20 09:33:47;;;;;;;10.58;6.83;;;;;;;5.10;33.84;100131.94;1713922;83;20996;-82
2022/03/20 09:36:14;;;;;;;15.32;7.92;;;;;;;5.13;30.22;100122.84;1717240;83;20968;-82
2022/03/20 09:38:41;;;;;;;12.70;6.45;;;;;;;5.32;32.42;100123.74;1723629;83;21000;-82
2022/03/20 09:41:11;;;;;;;13.25;5.80;;;;;;;5.35;31.32;100120.77;1720075;83;21024;-81
2022/03/20 09:43:42;;;;;;;10.10;5.80;;;;;;;5.41;31.85;100122.23;1715811;83;21000;-82
2022/03/20 09:46:11;;;;;;;8.30;5.22;;;;;;;5.58;31.42;100107.32;1706670;83;21020;-82
2022/03/20 09:48:38;;;;;;;18.10;9.98;;;;;;;5.77;29.71;100111.73;1716564;83;21506;-81
2022/03/20 09:51:05;;;;;;;24.40;11.50;;;;;;;5.97;30.84;100116.57;1722175;83;21087;-81
2022/03/20 09:53:32;;;;;;;14.38;6.87;;;;;;;6.04;30.35;100117.20;1723244;83;21000;-80
2022/03/20 09:55:59;;;;;;;15.60;7.03;;;;;;;6.11;30.28;100103.75;1723025;83;21080;-81
2022/03/20 09:58:28;;;;;;;11.22;6.55;;;;;;;6.23;28.74;100104.45;1722787;83;21406;-82
2022/03/20 10:00:56;;;;;;;12.43;6.25;;;;;;;6.19;28.01;100098.24;1724447;83;20996;-81
2022/03/20 10:03:25;;;;;;;9.95;6.40;;;;;;;6.13;27.72;100098.08;1724786;83;21064;-81
2022/03/20 10:06:17;;;;;;;10.32;7.20;;;;;;;6.08;26.74;100094.05;1724929;83;20966;-81
2022/03/20 10:09:04;;;;;;;9.85;6.25;;;;;;;6.20;27.76;100086.84;1724927;83;21053;-81
2022/03/20 10:11:35;;;;;;;10.55;6.12;;;;;;;6.39;29.21;100082.86;1719274;83;20993;-82
2022/03/20 10:14:16;;;;;;;11.73;6.28;;;;;;;6.39;28.60;100086.80;1700496;83;21592;-83
2022/03/20 10:16:50;;;;;;;12.10;7.25;;;;;;;6.43;28.22;100079.84;1695125;84;21097;-83
2022/03/20 10:19:26;;;;;;;;;;;;;;;6.46;27.84;100082.56;1688355;85;21053;-83
2022/03/20 10:22:04;;;;;;;9.50;6.35;;;;;;;6.33;26.76;100067.84;1699011;84;20192;-84
2022/03/20 10:24:40;;;;;;;13.00;6.85;;;;;;;6.29;27.66;100058.09;1714530;83;21037;-84
2022/03/20 10:27:14;;;;;;;15.60;6.40;;;;;;;6.33;28.14;100061.66;1705722;84;21121;-84
2022/03/20 10:29:58;;;;;;;12.98;6.17;;;;;;;6.36;28.17;100052.94;1704324;84;21054;-83
2022/03/20 10:32:25;;;;;;;11.50;5.20;;;;;;;6.40;28.02;100046.44;1683741;84;21375;-84
2022/03/20 10:35:00;;;;;;;10.25;5.58;;;;;;;6.30;25.23;100055.91;1704604;83;21573;-84
2022/03/20 10:37:49;;;;;;;7.60;5.35;;;;;;;6.36;26.22;100048.57;1706465;84;20980;-84
2022/03/20 10:40:21;;;;;;;9.98;5.30;;;;;;;6.55;27.49;100047.19;1698529;83;21049;-84
2022/03/20 10:43:14;;;;;;;9.50;5.97;;;;;;;6.70;26.12;100043.98;1671368;85;21028;-86
2022/03/20 10:46:00;;;;;;;11.53;5.80;;;;;;;6.78;24.16;100045.86;1698733;84;21037;-84
2022/03/20 10:48:41;;;;;;;12.68;6.08;;;;;;;7.24;26.25;100031.30;1703101;83;21383;-85
2022/03/20 10:51:12;;;;;;;10.75;5.70;;;;;;;8.29;25.52;100021.39;1707591;84;21055;-87
2022/03/20 10:53:58;;;;;;;10.20;5.03;;;;;;;9.69;24.66;100019.66;1710120;83;21040;-84
2022/03/20 10:56:24;;;;;;;13.68;6.22;;;;;;;10.75;22.27;100012.22;1702580;84;21077;-83
2022/03/20 10:58:52;;;;;;;9.48;5.12;;;;;;;11.86;22.78;100007.78;1716101;83;21454;-82
2022/03/20 11:01:38;;;;;;;7.20;5.17;;;;;;;12.61;20.56;100009.74;1705580;83;21460;-84
2022/03/20 11:04:07;;;;;;;9.05;5.72;;;;;;;13.20;20.82;99998.70;1709997;83;21024;-84
2022/03/20 11:06:35;;;;;;;7.17;5.00;;;;;;;13.88;19.03;99995.45;1704457;83;21078;-84
2022/03/20 11:09:04;;;;;;;7.90;5.40;;;;;;;14.21;19.35;99992.83;1703300;84;21423;-84
2022/03/20 11:11:34;;;;;;;8.40;5.70;;;;;;;14.57;18.48;99995.51;1703064;83;21004;-85
2022/03/20 11:14:03;;;;;;;6.25;4.83;;;;;;;15.30;19.10;99987.75;1702853;84;21044;-83
2022/03/20 11:16:36;;;;;;;6.50;4.90;;;;;;;15.74;16.34;99979.83;1702084;84;21450;-84
2022/03/20 11:19:08;;;;;;;6.60;4.80;;;;;;;16.09;18.34;99976.98;1671259;85;21017;-83
2022/03/20 11:21:39;;;;;;;6.95;4.60;;;;;;;16.16;16.13;99971.48;1669761;85;21040;-83
2022/03/20 11:24:06;;;;;;;8.30;5.15;;;;;;;16.02;15.60;99963.28;1666453;85;21451;-84
2022/03/20 11:26:39;;;;;;;8.23;4.72;;;;;;;16.25;16.29;99958.37;1671876;85;21009;-83
2022/03/20 11:29:07;;;;;;;6.40;4.83;;;;;;;16.40;16.48;99954.49;1708107;83;21117;-84
2022/03/20 11:31:36;;;;;;;6.70;4.85;;;;;;;16.86;16.05;99952.55;1669230;85;20995;-83
2022/03/20 11:34:07;;;;;;;7.70;5.10;;;;;;;17.04;16.50;99947.67;1669686;85;21004;-84
2022/03/20 11:37:07;;;;;;;8.23;5.35;;;;;;;16.83;15.94;99943.24;1692796;84;21038;-83
2022/03/20 11:39:39;;;;;;;9.88;6.03;;;;;;;16.55;15.19;99942.09;1702606;84;21513;-82
2022/03/20 11:42:28;;;;;;;8.33;5.37;;;;;;;16.74;15.88;99939.86;1695181;84;21013;-83
2022/03/20 11:45:06;;;;;;;7.40;5.35;;;;;;;16.56;15.44;99938.98;1705546;83;21042;-83
2022/03/20 11:47:37;;;;;;;9.70;5.28;;;;;;;16.56;14.37;99931.80;1703466;84;21060;-83
2022/03/20 11:50:24;;;;;;;6.60;5.10;;;;;;;17.13;14.48;99934.05;1703491;83;21455;-83
2022/03/20 11:53:06;;;;;;;8.30;5.00;;;;;;;16.90;14.19;99934.13;1704696;83;21051;-83
2022/03/20 11:55:38;;;;;;;6.92;4.30;;;;;;;17.00;13.73;99932.12;1714087;83;21026;-82
2022/03/20 11:58:24;;;;;;;6.03;4.33;;;;;;;16.93;14.85;99932.72;1706205;83;20945;-82